RJCW/WKJ METAR and TAF weather

Enter ICAO airport designator
Station Type Date Time Source
RJCW METAR 2019/08/25 02:00 UTC NOAA

RJCW 250200Z 03013KT 9999 -SHRA FEW006 SCT010 BKN040 16/14 Q1008


Station Type Date Time Source
RJCW Decoded METAR 2019/08/25 02:00 UTC NOAA

Station name not available
Aug 24, 2019 - 10:00 PM EDT / 2019.08.25 0200 UTC
Wind: from the NNE (030 degrees) at 15 MPH (13 KT):0
Visibility: greater than 7 mile(s):0
Sky conditions: mostly cloudy
Weather: light rain showers
Temperature: 60 F (16 C)
Dew Point: 57 F (14 C)
Relative Humidity: 87%
Pressure (altimeter): 29.77 in. Hg (1008 hPa)
ob: RJCW 250200Z 03013KT 9999 -SHRA FEW006 SCT010 BKN040 16/14 Q1008
cycle: 2

Station Type Date Time Source
RJCW TAF UTC NOAA

Error!

Example: see airport list